Time;durP1;ratioP1;P1;durP2;ratioP2;P2;SDS_P1;SDS_P2;PMS_P1;PMS_P2;Temp;Humidity;BMP_temperature;BMP_pressure;BME280_temperature;BME280_humidity;BME280_pressure;Samples;Min_cycle;Max_cycle;Signal;HPM_P1;HPM_P2
2022/06/29 00:00:15;;;;;;;4.47;2.10;;;;;;;;;;5052987;28;20059;-88
2022/06/29 00:02:46;;;;;;;2.10;1.98;;;;;;;;;;5053062;28;20080;-89
2022/06/29 00:05:13;;;;;;;2.53;2.33;;;;;;;;;;5054320;28;20091;-88
2022/06/29 00:07:41;;;;;;;2.00;1.70;;;;;;;;;;5053736;28;20083;-89
2022/06/29 00:10:09;;;;;;;1.92;1.80;;;;;;;;;;5052444;28;20135;-88
2022/06/29 00:12:37;;;;;;;2.30;2.10;;;;;;;;;;5052945;28;20493;-89
2022/06/29 00:15:05;;;;;;;3.35;2.17;;;;;;;;;;5053945;28;20135;-89
2022/06/29 00:17:33;;;;;;;4.07;2.10;;;;;;;;;;5053235;28;20053;-89
2022/06/29 00:20:01;;;;;;;2.13;1.95;;;;;;;;;;5054061;28;20045;-89
2022/06/29 00:22:29;;;;;;;2.10;1.88;;;;;;;;;;5052571;28;20049;-89
2022/06/29 00:24:57;;;;;;;5.38;2.33;;;;;;;;;;5052750;28;20076;-89
2022/06/29 00:27:25;;;;;;;1.77;1.67;;;;;;;;;;5052788;28;20080;-88
2022/06/29 00:29:53;;;;;;;2.85;2.45;;;;;;;;;;5052777;28;20047;-88
2022/06/29 00:32:20;;;;;;;2.10;2.00;;;;;;;;;;5053732;28;20045;-88
2022/06/29 00:34:47;;;;;;;2.53;1.90;;;;;;;;;;5052617;28;20051;-89
2022/06/29 00:37:14;;;;;;;2.28;2.10;;;;;;;;;;5053655;28;20147;-88
2022/06/29 00:39:42;;;;;;;2.58;2.17;;;;;;;;;;5052270;28;20076;-88
2022/06/29 00:42:09;;;;;;;2.10;2.00;;;;;;;;;;5053596;28;20132;-89
2022/06/29 00:44:36;;;;;;;2.10;1.90;;;;;;;;;;5052838;28;20118;-89
2022/06/29 00:47:05;;;;;;;2.72;2.30;;;;;;;;;;5052685;28;20139;-88
2022/06/29 00:49:34;;;;;;;4.28;2.30;;;;;;;;;;5053646;28;20498;-89
2022/06/29 00:52:05;;;;;;;2.53;2.33;;;;;;;;;;5052553;28;20139;-89
2022/06/29 00:54:40;;;;;;;2.85;2.60;;;;;;;;;;5052414;28;20045;-88
2022/06/29 00:57:18;;;;;;;1.90;1.83;;;;;;;;;;5052608;28;20059;-88
2022/06/29 00:59:47;;;;;;;2.10;2.00;;;;;;;;;;5053286;28;20497;-89
2022/06/29 01:02:15;;;;;;;3.78;2.75;;;;;;;;;;5052131;28;20053;-88
2022/06/29 01:04:43;;;;;;;2.70;2.50;;;;;;;;;;5052244;28;20512;-89
2022/06/29 01:07:12;;;;;;;2.83;2.63;;;;;;;;;;5052345;28;20505;-87
2022/06/29 01:09:40;;;;;;;2.22;2.13;;;;;;;;;;5052330;28;20139;-87
2022/06/29 01:12:07;;;;;;;2.28;2.17;;;;;;;;;;5051546;28;20453;-89
2022/06/29 01:14:34;;;;;;;2.58;2.38;;;;;;;;;;5052834;28;20053;-88
2022/06/29 01:17:03;;;;;;;2.35;2.15;;;;;;;;;;5051708;28;20056;-88
2022/06/29 01:19:30;;;;;;;4.13;2.33;;;;;;;;;;5052063;28;20052;-88
2022/06/29 01:21:59;;;;;;;1.98;1.88;;;;;;;;;;5051889;28;20135;-89
2022/06/29 01:24:27;;;;;;;4.50;2.15;;;;;;;;;;5051847;28;20127;-88
2022/06/29 01:26:54;;;;;;;2.60;2.38;;;;;;;;;;5051788;28;20581;-88
2022/06/29 01:29:21;;;;;;;2.55;2.45;;;;;;;;;;5052604;28;20057;-88
2022/06/29 01:31:53;;;;;;;3.13;2.25;;;;;;;;;;5052347;28;20142;-89
2022/06/29 01:34:20;;;;;;;2.13;1.95;;;;;;;;;;5052997;28;20053;-89
2022/06/29 01:36:48;;;;;;;4.03;2.13;;;;;;;;;;5053093;28;20072;-89
2022/06/29 01:39:15;;;;;;;3.20;2.28;;;;;;;;;;5052292;28;20063;-89
2022/06/29 01:41:43;;;;;;;1.90;1.80;;;;;;;;;;5051930;28;20167;-89
2022/06/29 01:44:10;;;;;;;2.53;1.98;;;;;;;;;;5052936;28;20045;-89
2022/06/29 01:46:37;;;;;;;2.72;2.38;;;;;;;;;;5052185;28;20200;-89
2022/06/29 01:49:05;;;;;;;2.40;2.20;;;;;;;;;;5051946;28;20509;-89
2022/06/29 01:51:33;;;;;;;2.35;2.17;;;;;;;;;;5053003;28;20056;-89
2022/06/29 01:54:00;;;;;;;2.17;2.08;;;;;;;;;;5051901;28;20557;-88
2022/06/29 01:56:28;;;;;;;2.10;2.00;;;;;;;;;;5052507;28;20056;-89
2022/06/29 01:58:55;;;;;;;2.80;2.30;;;;;;;;;;5051630;28;20049;-88
2022/06/29 02:01:22;;;;;;;4.22;2.65;;;;;;;;;;5052707;28;20433;-89
2022/06/29 02:03:51;;;;;;;2.40;2.20;;;;;;;;;;5052456;28;20132;-88
2022/06/29 02:06:19;;;;;;;2.63;2.40;;;;;;;;;;5051644;28;20049;-88
2022/06/29 02:08:46;;;;;;;3.00;2.50;;;;;;;;;;5051084;28;20507;-88
2022/06/29 02:11:13;;;;;;;2.97;2.45;;;;;;;;;;5051439;28;20047;-88
2022/06/29 02:13:41;;;;;;;2.45;2.15;;;;;;;;;;5054685;28;20143;-89
2022/06/29 02:16:08;;;;;;;2.22;2.10;;;;;;;;;;5051758;28;20534;-87
2022/06/29 02:18:36;;;;;;;2.50;2.30;;;;;;;;;;5051360;28;20052;-88
2022/06/29 02:21:03;;;;;;;2.70;2.20;;;;;;;;;;5051274;28;20143;-89
2022/06/29 02:23:30;;;;;;;2.85;2.53;;;;;;;;;;5052871;28;20106;-89
2022/06/29 02:25:57;;;;;;;5.40;2.60;;;;;;;;;;5054909;28;20072;-89
2022/06/29 02:28:25;;;;;;;2.78;2.50;;;;;;;;;;5054823;28;20140;-88
2022/06/29 02:36:23;;;;;;;2.63;2.42;;;;;;;;;;5055608;28;20527;-88
2022/06/29 02:38:51;;;;;;;3.08;2.17;;;;;;;;;;5054535;28;20473;-89
2022/06/29 02:41:18;;;;;;;2.53;2.35;;;;;;;;;;5055664;28;20416;-90
2022/06/29 02:43:45;;;;;;;2.90;2.70;;;;;;;;;;5054449;28;20478;-89
2022/06/29 02:46:13;;;;;;;2.58;2.40;;;;;;;;;;5054210;28;20383;-89
2022/06/29 02:48:41;;;;;;;2.60;2.40;;;;;;;;;;5054576;28;20148;-88
2022/06/29 02:51:08;;;;;;;2.50;2.40;;;;;;;;;;5054195;28;20128;-88
2022/06/29 02:53:35;;;;;;;2.22;2.13;;;;;;;;;;5054625;28;20060;-88
2022/06/29 02:56:03;;;;;;;2.90;2.35;;;;;;;;;;5054193;28;20045;-89
2022/06/29 02:58:30;;;;;;;2.50;2.40;;;;;;;;;;5055127;28;20152;-88
2022/06/29 03:00:57;;;;;;;3.63;2.63;;;;;;;;;;5055006;28;20084;-89
2022/06/29 03:03:25;;;;;;;2.72;2.53;;;;;;;;;;5054044;28;20052;-89
2022/06/29 03:05:52;;;;;;;2.88;2.67;;;;;;;;;;5055097;28;20060;-87
2022/06/29 03:08:19;;;;;;;2.28;2.17;;;;;;;;;;5054139;28;20128;-89
2022/06/29 03:10:47;;;;;;;3.35;2.55;;;;;;;;;;5053991;28;20053;-89
2022/06/29 03:13:14;;;;;;;2.65;2.53;;;;;;;;;;5054929;28;20041;-89
2022/06/29 03:15:41;;;;;;;3.03;2.70;;;;;;;;;;5053738;28;20535;-89
2022/06/29 03:18:09;;;;;;;4.47;2.45;;;;;;;;;;5053953;28;20045;-89
2022/06/29 03:20:36;;;;;;;3.40;2.47;;;;;;;;;;5054128;28;20080;-89
2022/06/29 03:23:03;;;;;;;2.72;2.50;;;;;;;;;;5054020;28;20057;-89
2022/06/29 03:25:30;;;;;;;2.55;2.35;;;;;;;;;;5053590;28;20104;-89
2022/06/29 03:27:58;;;;;;;3.95;2.40;;;;;;;;;;5054680;28;20056;-89
2022/06/29 03:30:25;;;;;;;3.65;2.40;;;;;;;;;;5054059;28;20053;-89
2022/06/29 03:32:53;;;;;;;3.33;2.50;;;;;;;;;;5055150;28;20045;-89
2022/06/29 03:35:21;;;;;;;3.08;2.47;;;;;;;;;;5053398;28;20072;-89
2022/06/29 03:37:50;;;;;;;2.70;2.50;;;;;;;;;;5053844;28;20441;-89
2022/06/29 03:40:17;;;;;;;2.53;2.42;;;;;;;;;;5053178;28;20053;-89
2022/06/29 03:42:44;;;;;;;3.63;2.88;;;;;;;;;;5053345;28;20136;-89
2022/06/29 03:45:12;;;;;;;4.97;2.60;;;;;;;;;;5053463;28;20593;-89
2022/06/29 03:47:39;;;;;;;4.55;2.72;;;;;;;;;;5053591;28;20069;-89
2022/06/29 03:50:07;;;;;;;2.92;2.67;;;;;;;;;;5053614;28;20103;-89
2022/06/29 03:52:35;;;;;;;2.78;2.30;;;;;;;;;;5053769;28;20148;-89
2022/06/29 03:55:03;;;;;;;2.47;2.30;;;;;;;;;;5054272;28;20082;-89
2022/06/29 03:57:30;;;;;;;4.10;3.22;;;;;;;;;;5053212;28;20558;-89
2022/06/29 03:59:58;;;;;;;4.20;3.90;;;;;;;;;;5054130;28;20079;-88
2022/06/29 04:02:25;;;;;;;3.35;3.10;;;;;;;;;;5054132;28;20102;-88
2022/06/29 04:04:53;;;;;;;2.90;2.72;;;;;;;;;;5053036;28;20081;-89
2022/06/29 04:07:20;;;;;;;4.57;2.80;;;;;;;;;;5053099;28;20131;-87
2022/06/29 04:09:47;;;;;;;2.95;2.47;;;;;;;;;;5052395;28;20052;-88
2022/06/29 04:12:15;;;;;;;2.85;2.53;;;;;;;;;;5052880;28;20107;-88
2022/06/29 04:14:42;;;;;;;2.90;2.70;;;;;;;;;;5052978;28;20136;-88
2022/06/29 04:17:09;;;;;;;5.00;2.78;;;;;;;;;;5053026;28;20048;-87
2022/06/29 04:19:36;;;;;;;4.22;2.72;;;;;;;;;;5052939;28;20138;-88
2022/06/29 04:22:04;;;;;;;3.03;2.83;;;;;;;;;;5052440;28;20135;-88
2022/06/29 04:24:31;;;;;;;3.53;2.72;;;;;;;;;;5052267;28;20049;-88
2022/06/29 04:26:58;;;;;;;3.78;2.70;;;;;;;;;;5052726;28;20494;-88
2022/06/29 04:29:25;;;;;;;4.13;2.92;;;;;;;;;;5052959;28;20061;-88
2022/06/29 04:31:53;;;;;;;3.10;2.90;;;;;;;;;;5053896;28;20124;-89
2022/06/29 04:34:20;;;;;;;3.20;2.67;;;;;;;;;;5052996;28;20136;-89
2022/06/29 04:36:47;;;;;;;2.80;2.60;;;;;;;;;;5052131;28;20160;-88
2022/06/29 04:39:14;;;;;;;12.23;3.42;;;;;;;;;;5052030;28;20402;-88
2022/06/29 04:41:42;;;;;;;3.13;2.75;;;;;;;;;;5052723;28;20128;-89
2022/06/29 04:44:09;;;;;;;9.25;2.97;;;;;;;;;;5052993;28;20135;-88
2022/06/29 04:46:36;;;;;;;3.67;2.88;;;;;;;;;;5051845;28;20152;-88
2022/06/29 04:49:04;;;;;;;3.10;2.90;;;;;;;;;;5052064;28;20091;-89
2022/06/29 04:51:32;;;;;;;3.17;2.88;;;;;;;;;;5035885;28;20055;-88
2022/06/29 04:54:00;;;;;;;5.60;3.00;;;;;;;;;;5052291;28;20068;-87
2022/06/29 04:56:28;;;;;;;6.38;3.05;;;;;;;;;;5052298;28;20123;-89
2022/06/29 04:58:56;;;;;;;3.03;2.72;;;;;;;;;;5052397;28;20055;-88
2022/06/29 05:01:24;;;;;;;7.03;3.05;;;;;;;;;;5052251;28;20051;-89
2022/06/29 05:03:51;;;;;;;5.30;2.72;;;;;;;;;;5051934;28;20049;-89
2022/06/29 05:06:20;;;;;;;9.10;3.25;;;;;;;;;;5052050;28;20128;-88
2022/06/29 05:08:48;;;;;;;4.82;2.75;;;;;;;;;;5045252;28;20048;-89
2022/06/29 05:11:17;;;;;;;7.15;3.17;;;;;;;;;;5052275;28;20045;-88
2022/06/29 05:13:45;;;;;;;11.43;3.13;;;;;;;;;;5052595;28;20445;-89
2022/06/29 05:16:13;;;;;;;5.40;2.60;;;;;;;;;;5051870;28;20065;-89
2022/06/29 05:18:40;;;;;;;5.97;3.08;;;;;;;;;;5052088;28;20056;-88
2022/06/29 05:21:09;;;;;;;4.80;2.65;;;;;;;;;;5053166;28;20100;-88
2022/06/29 05:23:36;;;;;;;5.57;3.00;;;;;;;;;;5052378;28;20087;-89
2022/06/29 05:26:04;;;;;;;2.80;2.60;;;;;;;;;;5052377;28;20064;-89
2022/06/29 05:28:31;;;;;;;6.55;3.05;;;;;;;;;;5052106;28;20155;-89
2022/06/29 05:30:58;;;;;;;4.15;3.10;;;;;;;;;;5052074;28;20133;-88
2022/06/29 05:33:26;;;;;;;8.57;3.10;;;;;;;;;;5052375;28;20548;-88
2022/06/29 05:35:53;;;;;;;5.20;2.75;;;;;;;;;;5052144;28;20160;-88
2022/06/29 05:38:20;;;;;;;4.20;2.80;;;;;;;;;;5051753;28;20458;-88
2022/06/29 05:40:47;;;;;;;7.20;3.25;;;;;;;;;;5052226;28;20450;-89
2022/06/29 05:43:15;;;;;;;6.40;2.97;;;;;;;;;;5051809;28;20055;-89
2022/06/29 05:45:42;;;;;;;7.28;3.05;;;;;;;;;;5051653;28;20045;-89
2022/06/29 05:48:10;;;;;;;6.00;2.75;;;;;;;;;;5051955;28;20045;-88
2022/06/29 05:50:37;;;;;;;6.57;3.30;;;;;;;;;;5052042;28;20053;-89
2022/06/29 05:53:04;;;;;;;3.40;3.10;;;;;;;;;;5051812;28;20049;-88
2022/06/29 05:55:31;;;;;;;4.93;3.20;;;;;;;;;;5052078;28;20053;-89
2022/06/29 05:57:59;;;;;;;5.25;3.15;;;;;;;;;;5055528;28;20045;-89
2022/06/29 06:00:26;;;;;;;4.70;3.15;;;;;;;;;;5055750;28;20143;-89
2022/06/29 06:02:53;;;;;;;9.70;3.03;;;;;;;;;;5055921;28;20453;-89
2022/06/29 06:05:20;;;;;;;4.05;2.90;;;;;;;;;;5054205;28;20139;-88
2022/06/29 06:07:47;;;;;;;5.60;2.88;;;;;;;;;;5055034;28;20470;-87
2022/06/29 06:10:15;;;;;;;3.70;2.45;;;;;;;;;;5055391;28;20116;-89
2022/06/29 06:12:42;;;;;;;10.00;3.30;;;;;;;;;;5055317;28;20473;-88
2022/06/29 06:15:09;;;;;;;2.33;2.22;;;;;;;;;;5055092;28;20493;-89
2022/06/29 06:17:36;;;;;;;6.28;2.58;;;;;;;;;;5055522;28;20145;-89
2022/06/29 06:20:04;;;;;;;5.18;2.55;;;;;;;;;;5055350;28;20072;-89
2022/06/29 06:22:31;;;;;;;8.65;2.78;;;;;;;;;;5055330;28;20088;-89
2022/06/29 06:24:59;;;;;;;3.47;2.33;;;;;;;;;;5055000;28;20045;-89
2022/06/29 06:27:26;;;;;;;2.65;2.30;;;;;;;;;;5055370;28;20505;-89
2022/06/29 06:29:53;;;;;;;2.45;2.20;;;;;;;;;;5056039;28;20076;-89
2022/06/29 06:32:20;;;;;;;3.13;2.20;;;;;;;;;;5055196;28;20052;-89
2022/06/29 06:34:48;;;;;;;3.10;2.30;;;;;;;;;;5055062;28;20079;-88
2022/06/29 06:37:16;;;;;;;3.38;2.10;;;;;;;;;;5055896;28;20056;-88
2022/06/29 06:41:21;;;;;;;3.75;2.30;;;;;;;;;;5054582;28;20469;-88
2022/06/29 06:42:30;;;;;;;5.18;3.03;;;;;;;;;;5055953;28;20079;-89
2022/06/29 06:44:58;;;;;;;2.63;2.42;;;;;;;;;;5054748;28;20048;-89
2022/06/29 06:47:25;;;;;;;2.95;2.72;;;;;;;;;;5056668;28;20063;-90
2022/06/29 06:49:52;;;;;;;3.28;2.97;;;;;;;;;;5055811;28;20049;-88
2022/06/29 06:52:20;;;;;;;6.95;2.58;;;;;;;;;;5057117;28;20140;-89
2022/06/29 06:54:47;;;;;;;5.22;2.97;;;;;;;;;;5056159;28;20137;-88
2022/06/29 06:57:14;;;;;;;4.63;2.50;;;;;;;;;;5055838;28;20143;-88
2022/06/29 06:59:42;;;;;;;6.72;2.80;;;;;;;;;;5055150;28;20124;-90
2022/06/29 07:02:09;;;;;;;4.88;2.72;;;;;;;;;;5054901;28;20087;-88
2022/06/29 07:04:36;;;;;;;8.23;2.95;;;;;;;;;;5054908;28;20048;-89
2022/06/29 07:07:05;;;;;;;3.03;2.55;;;;;;;;;;5055000;28;20048;-89
2022/06/29 07:09:33;;;;;;;2.88;2.67;;;;;;;;;;5053323;28;20060;-89
2022/06/29 07:12:00;;;;;;;2.95;2.60;;;;;;;;;;5054823;28;20091;-90
2022/06/29 07:14:27;;;;;;;4.70;2.92;;;;;;;;;;5054317;28;20136;-91
2022/06/29 07:16:54;;;;;;;4.57;3.25;;;;;;;;;;5054125;28;20053;-89
2022/06/29 07:19:22;;;;;;;5.30;3.08;;;;;;;;;;5054298;28;20049;-89
2022/06/29 07:21:49;;;;;;;9.00;3.17;;;;;;;;;;5054469;28;20127;-90
2022/06/29 07:24:16;;;;;;;3.70;3.17;;;;;;;;;;5053693;28;20211;-90
2022/06/29 07:26:44;;;;;;;3.80;2.80;;;;;;;;;;5053970;28;20045;-90
2022/06/29 07:29:11;;;;;;;4.47;2.92;;;;;;;;;;5054105;28;20457;-89
2022/06/29 07:31:38;;;;;;;4.75;2.65;;;;;;;;;;5054041;28;20052;-91
2022/06/29 07:34:06;;;;;;;3.42;2.88;;;;;;;;;;5053920;28;20077;-90
2022/06/29 07:36:33;;;;;;;5.82;3.08;;;;;;;;;;5053691;28;20064;-89
2022/06/29 07:39:00;;;;;;;4.63;3.50;;;;;;;;;;5053679;28;20420;-88
2022/06/29 07:41:27;;;;;;;4.90;3.80;;;;;;;;;;5053666;28;20128;-88
2022/06/29 07:43:55;;;;;;;4.55;3.25;;;;;;;;;;5054523;28;20128;-88
2022/06/29 07:46:22;;;;;;;4.38;3.17;;;;;;;;;;5054310;28;20049;-90
2022/06/29 07:48:50;;;;;;;4.40;3.20;;;;;;;;;;5053543;28;20053;-89
2022/06/29 07:51:17;;;;;;;4.30;3.50;;;;;;;;;;5054310;28;20083;-89
2022/06/29 07:53:44;;;;;;;3.50;3.30;;;;;;;;;;5053214;28;20500;-89
2022/06/29 07:56:12;;;;;;;4.80;3.67;;;;;;;;;;5053160;28;20084;-88
2022/06/29 07:58:39;;;;;;;6.03;3.85;;;;;;;;;;5053210;28;20049;-89
2022/06/29 08:01:06;;;;;;;7.30;4.10;;;;;;;;;;5054124;28;20504;-88
2022/06/29 08:03:34;;;;;;;6.10;3.70;;;;;;;;;;5053020;28;20128;-88
2022/06/29 08:06:01;;;;;;;3.90;3.20;;;;;;;;;;5053051;28;20051;-88
2022/06/29 08:08:29;;;;;;;6.43;3.80;;;;;;;;;;5053317;28;20095;-88
2022/06/29 08:10:56;;;;;;;9.43;4.65;;;;;;;;;;5053829;28;20148;-88
2022/06/29 08:13:23;;;;;;;8.18;4.72;;;;;;;;;;5052897;28;20055;-87
2022/06/29 08:15:50;;;;;;;7.85;4.60;;;;;;;;;;5052684;28;20052;-88
2022/06/29 08:18:17;;;;;;;7.95;5.13;;;;;;;;;;5052690;28;20473;-89
2022/06/29 08:20:45;;;;;;;7.63;4.75;;;;;;;;;;5053772;28;20055;-88
2022/06/29 08:23:13;;;;;;;7.00;4.47;;;;;;;;;;5052812;28;20072;-88
2022/06/29 08:25:40;;;;;;;6.55;5.20;;;;;;;;;;5052468;28;20539;-89
2022/06/29 08:28:27;;;;;;;4.97;4.50;;;;;;;;;;5053750;28;20052;-88
2022/06/29 08:30:55;;;;;;;5.00;4.55;;;;;;;;;;5052549;28;20051;-89
2022/06/29 08:33:22;;;;;;;4.10;3.78;;;;;;;;;;5052588;28;20048;-87
2022/06/29 08:35:50;;;;;;;5.88;4.90;;;;;;;;;;5052798;28;20045;-87
2022/06/29 08:38:17;;;;;;;4.68;4.18;;;;;;;;;;5051844;28;20108;-88
2022/06/29 08:40:46;;;;;;;5.82;4.55;;;;;;;;;;5053532;28;20466;-89
2022/06/29 08:43:14;;;;;;;5.00;4.70;;;;;;;;;;5052288;28;20053;-87
2022/06/29 08:45:43;;;;;;;4.63;4.30;;;;;;;;;;5052323;28;20557;-88
2022/06/29 08:48:11;;;;;;;7.07;4.80;;;;;;;;;;5053238;28;20457;-90
2022/06/29 08:50:41;;;;;;;4.90;4.50;;;;;;;;;;5052358;28;20417;-88
2022/06/29 08:53:09;;;;;;;6.28;4.05;;;;;;;;;;5052089;28;20111;-88
2022/06/29 08:55:46;;;;;;;5.03;4.22;;;;;;;;;;5053014;28;20504;-89
2022/06/29 08:58:21;;;;;;;5.32;4.82;;;;;;;;;;5052293;28;20049;-89
2022/06/29 09:00:49;;;;;;;4.65;4.18;;;;;;;;;;5052207;28;20148;-89
2022/06/29 09:03:18;;;;;;;11.30;5.72;;;;;;;;;;5052020;28;20113;-87
2022/06/29 09:05:47;;;;;;;6.07;5.47;;;;;;;;;;5052598;28;20049;-89
2022/06/29 09:08:15;;;;;;;8.50;5.80;;;;;;;;;;5051832;28;20053;-87
2022/06/29 09:10:42;;;;;;;7.32;6.60;;;;;;;;;;5053665;28;20103;-87
2022/06/29 09:13:09;;;;;;;10.57;6.90;;;;;;;;;;5053136;28;20048;-86
2022/06/29 09:15:38;;;;;;;6.82;6.22;;;;;;;;;;5052654;28;20067;-88
2022/06/29 09:18:22;;;;;;;9.48;6.55;;;;;;;;;;5051938;28;20051;-87
2022/06/29 09:20:49;;;;;;;;;;;;;;;;;;5052114;28;20045;-87
2022/06/29 09:23:19;;;;;;;6.78;6.13;;;;;;;;;;5051805;28;19931;-86
2022/06/29 09:25:46;;;;;;;6.75;6.15;;;;;;;;;;5051892;28;20123;-87
2022/06/29 09:28:24;;;;;;;8.68;7.80;;;;;;;;;;5051757;28;20048;-87
2022/06/29 09:30:52;;;;;;;7.75;6.97;;;;;;;;;;5051889;28;20128;-88
2022/06/29 09:33:21;;;;;;;7.95;7.25;;;;;;;;;;5055317;28;20049;-88
2022/06/29 09:36:07;;;;;;;6.53;6.03;;;;;;;;;;5056806;28;20115;-87
2022/06/29 09:38:35;;;;;;;6.35;5.90;;;;;;;;;;5055516;28;20059;-87
2022/06/29 09:41:06;;;;;;;6.60;5.97;;;;;;;;;;5055650;28;20124;-88
2022/06/29 09:43:35;;;;;;;7.32;5.80;;;;;;;;;;5056552;28;20080;-87
2022/06/29 09:46:03;;;;;;;5.70;5.25;;;;;;;;;;5055450;28;20045;-88
2022/06/29 09:48:31;;;;;;;9.07;7.82;;;;;;;;;;5055883;28;20041;-87
2022/06/29 09:50:59;;;;;;;10.40;8.52;;;;;;;;;;5056872;28;20128;-87
2022/06/29 09:53:39;;;;;;;9.85;7.30;;;;;;;;;;5055686;28;20049;-88
2022/06/29 09:56:08;;;;;;;8.98;7.45;;;;;;;;;;5055530;28;20123;-89
2022/06/29 09:58:42;;;;;;;10.68;6.45;;;;;;;;;;5056624;28;20108;-87
2022/06/29 10:03:56;;;;;;;8.88;5.78;;;;;;;;;;5056351;28;20088;-87
2022/06/29 10:06:24;;;;;;;8.70;7.65;;;;;;;;;;5055157;28;20084;-88
2022/06/29 10:08:57;;;;;;;10.82;8.52;;;;;;;;;;5055445;28;20080;-87
2022/06/29 10:14:38;;;;;;;7.47;6.93;;;;;;;;;;5055990;28;20095;-89
2022/06/29 10:17:13;;;;;;;7.70;6.55;;;;;;;;;;5055155;28;20450;-89
2022/06/29 10:19:57;;;;;;;6.95;6.28;;;;;;;;;;5056182;28;20061;-88
2022/06/29 10:22:24;;;;;;;6.22;5.43;;;;;;;;;;5055177;28;20057;-89
2022/06/29 10:25:03;;;;;;;6.55;6.15;;;;;;;;;;5054758;28;20059;-88
2022/06/29 10:27:31;;;;;;;7.28;6.50;;;;;;;;;;5054781;28;20167;-89
2022/06/29 10:30:16;;;;;;;7.22;6.65;;;;;;;;;;5055659;28;20049;-87
2022/06/29 10:32:44;;;;;;;9.32;7.28;;;;;;;;;;5054889;28;20106;-88
2022/06/29 10:35:11;;;;;;;9.18;7.15;;;;;;;;;;5054710;28;20049;-88
2022/06/29 10:37:52;;;;;;;10.27;7.20;;;;;;;;;;5054849;28;20095;-85
2022/06/29 10:40:24;;;;;;;7.50;6.60;;;;;;;;;;5054632;28;20098;-88
2022/06/29 10:43:10;;;;;;;7.47;6.78;;;;;;;;;;5055445;28;20047;-87
2022/06/29 10:45:46;;;;;;;6.75;6.20;;;;;;;;;;5054288;28;20048;-86
2022/06/29 10:48:14;;;;;;;7.13;6.53;;;;;;;;;;5054557;28;20055;-90
2022/06/29 10:50:43;;;;;;;7.65;6.93;;;;;;;;;;5054539;28;20053;-90
2022/06/29 10:53:11;;;;;;;7.53;6.72;;;;;;;;;;5055400;28;20420;-88
2022/06/29 10:55:40;;;;;;;6.70;6.13;;;;;;;;;;5054343;28;20561;-86
2022/06/29 10:58:08;;;;;;;7.68;6.88;;;;;;;;;;5053996;28;20136;-88
2022/06/29 11:00:42;;;;;;;6.80;6.28;;;;;;;;;;5054261;28;20084;-89
2022/06/29 11:03:12;;;;;;;7.45;6.72;;;;;;;;;;5054252;28;20045;-92
2022/06/29 11:12:01;;;;;;;7.30;6.68;;;;;;;;;;5053970;28;20056;-90
2022/06/29 11:14:00;;;;;;;6.32;5.82;;;;;;;;;;5048696;28;20412;-88
2022/06/29 11:16:31;;;;;;;9.85;7.28;;;;;;;;;;5054963;28;20061;-86
2022/06/29 11:18:59;;;;;;;8.80;7.78;;;;;;;;;;5054118;28;20131;-87
2022/06/29 11:21:30;;;;;;;7.47;6.88;;;;;;;;;;5053810;28;20132;-86
2022/06/29 11:24:02;;;;;;;11.10;7.20;;;;;;;;;;5054121;28;20135;-88
2022/06/29 11:26:30;;;;;;;7.10;6.50;;;;;;;;;;5054106;28;20055;-87
2022/06/29 11:28:58;;;;;;;7.72;7.00;;;;;;;;;;5055079;28;20051;-88
2022/06/29 11:31:26;;;;;;;7.35;6.38;;;;;;;;;;5054654;28;20053;-88
2022/06/29 11:33:54;;;;;;;8.45;7.75;;;;;;;;;;5053520;28;20055;-87
2022/06/29 11:36:23;;;;;;;6.28;5.68;;;;;;;;;;5054636;28;20107;-88
2022/06/29 11:38:51;;;;;;;7.57;6.55;;;;;;;;;;5054038;28;20047;-88
2022/06/29 11:44:28;;;;;;;9.85;6.82;;;;;;;;;;5053928;28;20124;-87
2022/06/29 11:46:56;;;;;;;7.45;6.68;;;;;;;;;;5052513;28;20095;-86
2022/06/29 11:49:39;;;;;;;7.88;6.72;;;;;;;;;;5053272;28;20103;-87
2022/06/29 11:52:10;;;;;;;8.52;7.82;;;;;;;;;;5052833;28;20049;-87
2022/06/29 11:54:43;;;;;;;8.00;7.30;;;;;;;;;;5052264;28;20077;-86
2022/06/29 11:57:12;;;;;;;10.80;7.63;;;;;;;;;;5053845;28;20080;-86
2022/06/29 11:59:40;;;;;;;7.47;6.88;;;;;;;;;;5053921;28;20049;-87
2022/06/29 12:02:07;;;;;;;8.93;8.05;;;;;;;;;;5052634;28;20052;-88
2022/06/29 12:04:37;;;;;;;8.30;7.60;;;;;;;;;;5053830;28;20056;-86
2022/06/29 12:07:10;;;;;;;8.63;7.05;;;;;;;;;;5052480;28;20053;-87
2022/06/29 12:09:39;;;;;;;8.32;7.38;;;;;;;;;;5052371;28;20069;-88
2022/06/29 12:12:07;;;;;;;7.88;7.18;;;;;;;;;;5052789;28;20406;-87
2022/06/29 12:14:35;;;;;;;9.65;8.68;;;;;;;;;;5052695;28;20637;-90
2022/06/29 12:17:03;;;;;;;9.60;7.45;;;;;;;;;;5052456;28;20553;-86
2022/06/29 12:19:30;;;;;;;8.85;8.05;;;;;;;;;;5052493;28;20059;-85
2022/06/29 12:21:58;;;;;;;8.50;7.70;;;;;;;;;;5052148;28;20387;-86
2022/06/29 12:24:26;;;;;;;9.13;7.95;;;;;;;;;;5052162;28;20053;-89
2022/06/29 12:26:53;;;;;;;10.85;9.18;;;;;;;;;;5052590;28;20048;-87
2022/06/29 12:29:21;;;;;;;14.02;8.88;;;;;;;;;;5052298;28;20077;-86
2022/06/29 12:31:54;;;;;;;8.23;7.53;;;;;;;;;;5052251;28;20053;-86
2022/06/29 12:34:22;;;;;;;8.85;8.05;;;;;;;;;;5051732;28;20555;-87
2022/06/29 12:36:58;;;;;;;9.73;8.45;;;;;;;;;;5053010;28;20132;-84
2022/06/29 12:39:26;;;;;;;11.25;9.82;;;;;;;;;;5051496;28;20485;-84
2022/06/29 12:41:54;;;;;;;11.35;8.95;;;;;;;;;;5051917;28;20052;-86
2022/06/29 12:44:21;;;;;;;10.80;9.80;;;;;;;;;;5051378;28;20091;-87
2022/06/29 12:46:49;;;;;;;11.65;9.48;;;;;;;;;;5051555;28;20057;-85
2022/06/29 12:49:16;;;;;;;9.75;8.93;;;;;;;;;;5051873;28;20088;-89
2022/06/29 12:51:44;;;;;;;9.23;8.35;;;;;;;;;;5052346;28;20057;-86
2022/06/29 12:54:11;;;;;;;9.77;8.25;;;;;;;;;;5051881;28;20044;-86
2022/06/29 12:56:39;;;;;;;9.63;8.82;;;;;;;;;;5051661;28;20100;-88
2022/06/29 12:59:06;;;;;;;9.88;8.88;;;;;;;;;;5052424;28;20044;-90
2022/06/29 13:01:34;;;;;;;10.02;9.13;;;;;;;;;;5053418;28;20084;-89
2022/06/29 13:04:02;;;;;;;11.38;8.80;;;;;;;;;;5053277;28;20056;-87
2022/06/29 13:06:30;;;;;;;8.75;7.88;;;;;;;;;;5052264;28;20072;-87
2022/06/29 13:08:58;;;;;;;9.32;8.38;;;;;;;;;;5053337;28;20485;-89
2022/06/29 13:11:26;;;;;;;9.45;8.55;;;;;;;;;;5053173;28;20072;-86
2022/06/29 13:13:53;;;;;;;13.27;8.38;;;;;;;;;;5052786;28;20056;-88
2022/06/29 13:16:26;;;;;;;9.00;8.20;;;;;;;;;;5053094;28;20139;-87
2022/06/29 13:18:54;;;;;;;9.48;8.25;;;;;;;;;;5052959;28;20080;-87
2022/06/29 13:21:21;;;;;;;9.45;8.50;;;;;;;;;;5052110;28;20081;-89
2022/06/29 13:23:48;;;;;;;9.95;8.57;;;;;;;;;;5051924;28;20092;-86
2022/06/29 13:26:16;;;;;;;8.52;7.82;;;;;;;;;;5052621;28;20112;-90
2022/06/29 13:28:43;;;;;;;9.48;8.68;;;;;;;;;;5051826;28;20428;-89
2022/06/29 13:31:11;;;;;;;8.88;8.00;;;;;;;;;;5051996;28;20049;-87
2022/06/29 13:33:39;;;;;;;8.95;8.05;;;;;;;;;;5052163;28;20127;-87
2022/06/29 13:36:06;;;;;;;8.13;7.30;;;;;;;;;;5051415;28;20049;-88
2022/06/29 13:38:34;;;;;;;8.32;7.55;;;;;;;;;;5051868;28;20080;-87
2022/06/29 13:41:01;;;;;;;8.02;7.30;;;;;;;;;;5051764;28;20413;-88
2022/06/29 13:43:28;;;;;;;8.48;7.78;;;;;;;;;;5051746;28;20088;-87
2022/06/29 13:45:56;;;;;;;8.88;7.55;;;;;;;;;;5052625;28;20057;-88
2022/06/29 13:48:23;;;;;;;8.52;7.38;;;;;;;;;;5051734;28;20048;-87
2022/06/29 13:50:50;;;;;;;9.43;7.53;;;;;;;;;;5052458;28;20053;-85
2022/06/29 13:53:18;;;;;;;8.32;7.63;;;;;;;;;;5051271;28;20060;-88
2022/06/29 13:55:45;;;;;;;8.65;7.95;;;;;;;;;;5051263;28;20128;-88
2022/06/29 13:58:17;;;;;;;9.00;8.05;;;;;;;;;;5051403;28;20556;-86
2022/06/29 14:00:44;;;;;;;9.93;8.77;;;;;;;;;;5051780;28;20080;-87
2022/06/29 14:03:12;;;;;;;7.90;7.28;;;;;;;;;;5051575;28;20496;-88
2022/06/29 14:05:39;;;;;;;8.93;7.75;;;;;;;;;;5051395;28;20187;-87
2022/06/29 14:08:06;;;;;;;17.25;9.30;;;;;;;;;;5051417;28;20128;-87
2022/06/29 14:10:54;;;;;;;15.38;8.80;;;;;;;;;;5051349;28;20075;-87
2022/06/29 14:13:21;;;;;;;10.35;8.38;;;;;;;;;;5051380;28;20081;-88
2022/06/29 14:15:49;;;;;;;10.05;9.02;;;;;;;;;;5052349;28;20136;-87
2022/06/29 14:18:16;;;;;;;10.90;9.52;;;;;;;;;;5052911;28;20103;-85
2022/06/29 14:20:43;;;;;;;12.60;9.35;;;;;;;;;;5055121;28;20135;-87
2022/06/29 14:23:10;;;;;;;13.85;8.98;;;;;;;;;;5055042;28;20131;-87
2022/06/29 14:25:38;;;;;;;11.65;8.50;;;;;;;;;;5054865;28;20045;-86
2022/06/29 14:28:05;;;;;;;11.30;9.27;;;;;;;;;;5055119;28;20413;-86
2022/06/29 14:30:33;;;;;;;12.70;9.48;;;;;;;;;;5054728;28;20049;-91
2022/06/29 14:33:00;;;;;;;9.45;8.50;;;;;;;;;;5055625;28;20060;-87
2022/06/29 14:35:28;;;;;;;8.95;8.05;;;;;;;;;;5055891;28;20077;-90
2022/06/29 14:37:55;;;;;;;9.18;8.38;;;;;;;;;;5055626;28;20144;-87
2022/06/29 14:40:22;;;;;;;9.57;8.70;;;;;;;;;;5054605;28;20135;-87
2022/06/29 14:42:50;;;;;;;9.20;8.25;;;;;;;;;;5055764;28;20099;-87
2022/06/29 14:45:17;;;;;;;10.82;8.73;;;;;;;;;;5055341;28;20184;-88
2022/06/29 14:47:44;;;;;;;10.73;9.25;;;;;;;;;;5054510;28;20053;-88
2022/06/29 14:50:12;;;;;;;10.68;8.63;;;;;;;;;;5054341;28;20076;-86
2022/06/29 14:52:39;;;;;;;10.80;8.60;;;;;;;;;;5055374;28;20052;-85
2022/06/29 14:55:08;;;;;;;9.20;8.30;;;;;;;;;;5055113;28;20124;-87
2022/06/29 14:57:36;;;;;;;10.07;9.18;;;;;;;;;;5054430;28;20073;-87
2022/06/29 15:00:08;;;;;;;10.48;9.40;;;;;;;;;;5054031;28;20575;-86
2022/06/29 15:02:36;;;;;;;9.37;8.47;;;;;;;;;;5054241;28;20073;-88
2022/06/29 15:05:04;;;;;;;10.30;9.35;;;;;;;;;;5054740;28;20079;-85
2022/06/29 15:07:31;;;;;;;9.25;8.45;;;;;;;;;;5053857;28;20124;-86
2022/06/29 15:10:00;;;;;;;10.07;8.95;;;;;;;;;;5053616;28;20568;-86